sensor_id;sensor_type;location;lat;lon;timestamp;temperature;humidity
22442;DHT22;11388;54.456;9.752;2023-05-07T12:23:25;20.00;99.90
22442;DHT22;11388;54.456;9.752;2023-05-07T12:25:51;20.90;99.90
22442;DHT22;11388;54.456;9.752;2023-05-07T12:28:18;22.90;99.90
22442;DHT22;11388;54.456;9.752;2023-05-07T12:30:45;24.80;99.90
22442;DHT22;11388;54.456;9.752;2023-05-07T12:33:11;24.90;99.90
22442;DHT22;11388;54.456;9.752;2023-05-07T12:35:41;24.00;99.90
22442;DHT22;11388;54.456;9.752;2023-05-07T12:38:13;23.10;99.90
22442;DHT22;11388;54.456;9.752;2023-05-07T12:40:49;22.50;99.90
22442;DHT22;11388;54.456;9.752;2023-05-07T12:43:27;22.50;99.90
22442;DHT22;11388;54.456;9.752;2023-05-07T12:45:57;22.70;99.90
22442;DHT22;11388;54.456;9.752;2023-05-07T12:48:23;22.50;99.90
22442;DHT22;11388;54.456;9.752;2023-05-07T12:50:53;22.30;99.90
22442;DHT22;11388;54.456;9.752;2023-05-07T12:53:22;22.60;99.90
22442;DHT22;11388;54.456;9.752;2023-05-07T12:55:50;22.80;99.90
22442;DHT22;11388;54.456;9.752;2023-05-07T12:58:18;23.90;99.90
22442;DHT22;11388;54.456;9.752;2023-05-07T13:00:45;24.90;99.90
22442;DHT22;11388;54.456;9.752;2023-05-07T13:05:52;23.70;99.90
22442;DHT22;11388;54.456;9.752;2023-05-07T13:11:04;24.60;99.90
22442;DHT22;11388;54.456;9.752;2023-05-07T13:13:40;27.30;99.80
22442;DHT22;11388;54.456;9.752;2023-05-07T13:16:09;29.00;95.30
22442;DHT22;11388;54.456;9.752;2023-05-07T13:18:35;28.80;91.70
22442;DHT22;11388;54.456;9.752;2023-05-07T13:21:01;31.10;93.50
22442;DHT22;11388;54.456;9.752;2023-05-07T13:23:35;31.20;86.40
22442;DHT22;11388;54.456;9.752;2023-05-07T13:26:00;30.50;82.40
22442;DHT22;11388;54.456;9.752;2023-05-07T13:28:37;30.20;83.30
22442;DHT22;11388;54.456;9.752;2023-05-07T13:31:05;31.00;87.00
22442;DHT22;11388;54.456;9.752;2023-05-07T13:33:31;30.10;80.30
22442;DHT22;11388;54.456;9.752;2023-05-07T13:35:57;31.00;80.40
22442;DHT22;11388;54.456;9.752;2023-05-07T13:38:26;31.50;78.50
22442;DHT22;11388;54.456;9.752;2023-05-07T13:40:51;33.00;75.50
22442;DHT22;11388;54.456;9.752;2023-05-07T13:43:27;33.10;69.60
22442;DHT22;11388;54.456;9.752;2023-05-07T13:45:59;32.20;74.70
22442;DHT22;11388;54.456;9.752;2023-05-07T13:48:28;30.60;70.40
22442;DHT22;11388;54.456;9.752;2023-05-07T13:51:03;30.70;71.30
22442;DHT22;11388;54.456;9.752;2023-05-07T13:53:31;29.90;72.60
22442;DHT22;11388;54.456;9.752;2023-05-07T13:55:59;28.30;72.90
22442;DHT22;11388;54.456;9.752;2023-05-07T13:58:24;29.10;77.30
22442;DHT22;11388;54.456;9.752;2023-05-07T14:00:59;30.30;74.30
22442;DHT22;11388;54.456;9.752;2023-05-07T14:03:28;31.40;74.20
22442;DHT22;11388;54.456;9.752;2023-05-07T14:05:53;29.80;70.00
22442;DHT22;11388;54.456;9.752;2023-05-07T14:08:19;28.10;71.90
22442;DHT22;11388;54.456;9.752;2023-05-07T14:10:46;27.00;75.40
22442;DHT22;11388;54.456;9.752;2023-05-07T14:13:12;28.30;76.30
22442;DHT22;11388;54.456;9.752;2023-05-07T14:18:13;31.90;71.70
22442;DHT22;11388;54.456;9.752;2023-05-07T14:20:43;32.60;68.30
22442;DHT22;11388;54.456;9.752;2023-05-07T14:23:11;31.00;66.10
22442;DHT22;11388;54.456;9.752;2023-05-07T14:25:37;30.20;68.60
22442;DHT22;11388;54.456;9.752;2023-05-07T14:28:03;30.40;67.40
22442;DHT22;11388;54.456;9.752;2023-05-07T14:30:29;30.10;67.80
22442;DHT22;11388;54.456;9.752;2023-05-07T14:32:54;29.30;68.30
22442;DHT22;11388;54.456;9.752;2023-05-07T14:35:20;28.50;71.00
22442;DHT22;11388;54.456;9.752;2023-05-07T14:37:46;27.60;71.80
22442;DHT22;11388;54.456;9.752;2023-05-07T14:40:12;26.50;73.20
22442;DHT22;11388;54.456;9.752;2023-05-07T14:42:38;25.60;75.30
22442;DHT22;11388;54.456;9.752;2023-05-07T14:45:07;25.00;77.90
22442;DHT22;11388;54.456;9.752;2023-05-07T14:47:32;24.70;79.80
22442;DHT22;11388;54.456;9.752;2023-05-07T14:50:01;24.50;80.80
22442;DHT22;11388;54.456;9.752;2023-05-07T14:52:27;24.20;80.60
22442;DHT22;11388;54.456;9.752;2023-05-07T14:54:53;23.80;80.70
22442;DHT22;11388;54.456;9.752;2023-05-07T15:00:53;23.50;82.60
22442;DHT22;11388;54.456;9.752;2023-05-07T15:03:21;23.60;84.50
22442;DHT22;11388;54.456;9.752;2023-05-07T15:05:56;23.50;84.50
22442;DHT22;11388;54.456;9.752;2023-05-07T15:08:43;23.40;83.90
22442;DHT22;11388;54.456;9.752;2023-05-07T15:11:19;23.30;85.10
22442;DHT22;11388;54.456;9.752;2023-05-07T15:13:55;23.10;84.70
22442;DHT22;11388;54.456;9.752;2023-05-07T15:16:38;22.70;85.60
22442;DHT22;11388;54.456;9.752;2023-05-07T15:19:22;22.50;86.90
22442;DHT22;11388;54.456;9.752;2023-05-07T15:22:10;22.20;87.90
22442;DHT22;11388;54.456;9.752;2023-05-07T15:24:45;22.10;87.90
22442;DHT22;11388;54.456;9.752;2023-05-07T15:27:15;22.10;88.70
22442;DHT22;11388;54.456;9.752;2023-05-07T15:29:48;22.20;88.00
22442;DHT22;11388;54.456;9.752;2023-05-07T15:32:37;22.10;89.30
22442;DHT22;11388;54.456;9.752;2023-05-07T15:35:06;22.00;88.10
22442;DHT22;11388;54.456;9.752;2023-05-07T15:37:49;22.10;89.70
22442;DHT22;11388;54.456;9.752;2023-05-07T15:40:23;22.20;89.50
22442;DHT22;11388;54.456;9.752;2023-05-07T15:42:56;22.40;90.50
22442;DHT22;11388;54.456;9.752;2023-05-07T15:45:25;23.20;87.10
22442;DHT22;11388;54.456;9.752;2023-05-07T15:48:14;23.30;86.80
22442;DHT22;11388;54.456;9.752;2023-05-07T15:51:07;23.10;86.90
22442;DHT22;11388;54.456;9.752;2023-05-07T15:53:39;22.80;87.80
22442;DHT22;11388;54.456;9.752;2023-05-07T15:56:25;22.40;88.50
22442;DHT22;11388;54.456;9.752;2023-05-07T15:58:51;22.30;90.20
22442;DHT22;11388;54.456;9.752;2023-05-07T16:01:38;22.20;89.40
22442;DHT22;11388;54.456;9.752;2023-05-07T16:04:19;22.00;88.80
22442;DHT22;11388;54.456;9.752;2023-05-07T16:07:04;22.10;90.10
22442;DHT22;11388;54.456;9.752;2023-05-07T16:09:32;22.60;89.30
22442;DHT22;11388;54.456;9.752;2023-05-07T16:11:59;23.30;87.40
22442;DHT22;11388;54.456;9.752;2023-05-07T16:14:32;23.40;85.80
22442;DHT22;11388;54.456;9.752;2023-05-07T16:17:01;23.30;85.60
22442;DHT22;11388;54.456;9.752;2023-05-07T16:20:01;22.90;85.40
22442;DHT22;11388;54.456;9.752;2023-05-07T16:22:32;22.60;87.30
22442;DHT22;11388;54.456;9.752;2023-05-07T16:25:03;22.20;87.80
22442;DHT22;11388;54.456;9.752;2023-05-07T16:27:39;22.10;88.80
22442;DHT22;11388;54.456;9.752;2023-05-07T16:30:05;22.00;88.90
22442;DHT22;11388;54.456;9.752;2023-05-07T16:32:31;22.00;89.40
22442;DHT22;11388;54.456;9.752;2023-05-07T16:35:03;22.10;87.00
22442;DHT22;11388;54.456;9.752;2023-05-07T16:37:29;22.90;86.00
22442;DHT22;11388;54.456;9.752;2023-05-07T16:39:55;24.20;83.00
22442;DHT22;11388;54.456;9.752;2023-05-07T16:42:21;23.80;79.60
22442;DHT22;11388;54.456;9.752;2023-05-07T16:44:46;23.20;81.50
22442;DHT22;11388;54.456;9.752;2023-05-07T16:47:12;22.60;84.20
22442;DHT22;11388;54.456;9.752;2023-05-07T16:49:38;22.00;83.60
22442;DHT22;11388;54.456;9.752;2023-05-07T16:52:03;21.60;83.20
22442;DHT22;11388;54.456;9.752;2023-05-07T16:54:29;21.20;85.50
22442;DHT22;11388;54.456;9.752;2023-05-07T16:56:55;21.00;86.10
22442;DHT22;11388;54.456;9.752;2023-05-07T16:59:21;20.90;87.00
22442;DHT22;11388;54.456;9.752;2023-05-07T17:01:47;20.90;86.60
22442;DHT22;11388;54.456;9.752;2023-05-07T17:04:13;21.10;86.60
22442;DHT22;11388;54.456;9.752;2023-05-07T17:06:39;22.60;85.00
22442;DHT22;11388;54.456;9.752;2023-05-07T17:09:04;23.30;82.00
22442;DHT22;11388;54.456;9.752;2023-05-07T17:11:30;22.80;81.20
22442;DHT22;11388;54.456;9.752;2023-05-07T17:13:58;22.10;82.70
22442;DHT22;11388;54.456;9.752;2023-05-07T17:16:24;21.60;84.20
22442;DHT22;11388;54.456;9.752;2023-05-07T17:18:50;21.00;84.60
22442;DHT22;11388;54.456;9.752;2023-05-07T17:21:15;20.60;85.10
22442;DHT22;11388;54.456;9.752;2023-05-07T17:23:41;20.20;86.80
22442;DHT22;11388;54.456;9.752;2023-05-07T17:26:11;19.90;88.10
22442;DHT22;11388;54.456;9.752;2023-05-07T17:28:38;19.90;88.90
22442;DHT22;11388;54.456;9.752;2023-05-07T17:31:03;19.90;88.60
22442;DHT22;11388;54.456;9.752;2023-05-07T17:33:30;20.40;88.40
22442;DHT22;11388;54.456;9.752;2023-05-07T17:36:00;21.60;85.30
22442;DHT22;11388;54.456;9.752;2023-05-07T17:38:28;20.80;84.60
22442;DHT22;11388;54.456;9.752;2023-05-07T17:40:54;20.40;85.30
22442;DHT22;11388;54.456;9.752;2023-05-07T17:43:20;19.90;86.70
22442;DHT22;11388;54.456;9.752;2023-05-07T17:45:48;19.50;87.30
22442;DHT22;11388;54.456;9.752;2023-05-07T17:48:14;19.20;88.30
22442;DHT22;11388;54.456;9.752;2023-05-07T17:50:40;18.90;89.50
22442;DHT22;11388;54.456;9.752;2023-05-07T17:53:05;18.60;90.30
22442;DHT22;11388;54.456;9.752;2023-05-07T17:55:32;18.50;90.70
22442;DHT22;11388;54.456;9.752;2023-05-07T17:57:58;18.40;90.80
22442;DHT22;11388;54.456;9.752;2023-05-07T18:00:24;18.20;91.30
22442;DHT22;11388;54.456;9.752;2023-05-07T18:02:51;18.00;91.10
22442;DHT22;11388;54.456;9.752;2023-05-07T18:05:16;17.80;91.50
22442;DHT22;11388;54.456;9.752;2023-05-07T18:07:42;17.60;91.90
22442;DHT22;11388;54.456;9.752;2023-05-07T18:10:08;17.30;92.20
22442;DHT22;11388;54.456;9.752;2023-05-07T18:12:34;17.10;92.60
22442;DHT22;11388;54.456;9.752;2023-05-07T18:15:00;16.90;92.90
22442;DHT22;11388;54.456;9.752;2023-05-07T18:17:25;16.70;93.30
22442;DHT22;11388;54.456;9.752;2023-05-07T18:19:52;16.40;93.90
22442;DHT22;11388;54.456;9.752;2023-05-07T18:22:17;16.20;94.80
22442;DHT22;11388;54.456;9.752;2023-05-07T18:24:50;16.10;95.70
22442;DHT22;11388;54.456;9.752;2023-05-07T18:27:16;15.80;96.60
22442;DHT22;11388;54.456;9.752;2023-05-07T18:29:42;15.80;98.10
22442;DHT22;11388;54.456;9.752;2023-05-07T18:32:08;15.60;99.20
22442;DHT22;11388;54.456;9.752;2023-05-07T18:34:34;15.50;99.90
22442;DHT22;11388;54.456;9.752;2023-05-07T18:36:59;15.40;99.90
22442;DHT22;11388;54.456;9.752;2023-05-07T18:39:25;15.30;99.90
22442;DHT22;11388;54.456;9.752;2023-05-07T18:41:51;15.20;99.90
22442;DHT22;11388;54.456;9.752;2023-05-07T18:44:17;15.10;99.90
22442;DHT22;11388;54.456;9.752;2023-05-07T18:46:43;15.00;99.90
22442;DHT22;11388;54.456;9.752;2023-05-07T18:49:09;15.00;99.90
22442;DHT22;11388;54.456;9.752;2023-05-07T18:51:35;14.90;99.90
22442;DHT22;11388;54.456;9.752;2023-05-07T18:54:01;14.80;99.90
22442;DHT22;11388;54.456;9.752;2023-05-07T18:56:26;14.70;99.90
22442;DHT22;11388;54.456;9.752;2023-05-07T18:58:52;14.60;99.90
22442;DHT22;11388;54.456;9.752;2023-05-07T19:01:18;14.60;99.90
22442;DHT22;11388;54.456;9.752;2023-05-07T19:03:43;14.50;99.90
22442;DHT22;11388;54.456;9.752;2023-05-07T19:06:09;14.50;99.90
22442;DHT22;11388;54.456;9.752;2023-05-07T19:08:35;14.40;99.90
22442;DHT22;11388;54.456;9.752;2023-05-07T19:11:01;14.20;99.90
22442;DHT22;11388;54.456;9.752;2023-05-07T19:13:27;14.20;99.90
22442;DHT22;11388;54.456;9.752;2023-05-07T19:15:53;14.10;99.90
22442;DHT22;11388;54.456;9.752;2023-05-07T19:18:19;14.10;99.90
22442;DHT22;11388;54.456;9.752;2023-05-07T19:20:46;14.10;99.90
22442;DHT22;11388;54.456;9.752;2023-05-07T19:23:13;14.10;99.90
22442;DHT22;11388;54.456;9.752;2023-05-07T19:25:38;14.00;99.90
22442;DHT22;11388;54.456;9.752;2023-05-07T19:28:04;14.00;99.90
22442;DHT22;11388;54.456;9.752;2023-05-07T19:30:30;14.00;99.90
22442;DHT22;11388;54.456;9.752;2023-05-07T19:32:58;13.90;99.90
22442;DHT22;11388;54.456;9.752;2023-05-07T19:35:25;13.80;99.90
22442;DHT22;11388;54.456;9.752;2023-05-07T19:37:51;13.80;99.90
22442;DHT22;11388;54.456;9.752;2023-05-07T19:40:17;13.70;99.90
22442;DHT22;11388;54.456;9.752;2023-05-07T19:42:42;13.60;99.90
22442;DHT22;11388;54.456;9.752;2023-05-07T19:45:08;13.50;99.90
22442;DHT22;11388;54.456;9.752;2023-05-07T19:47:34;13.40;99.90
22442;DHT22;11388;54.456;9.752;2023-05-07T19:50:00;13.30;99.90
22442;DHT22;11388;54.456;9.752;2023-05-07T19:52:26;13.30;99.90
22442;DHT22;11388;54.456;9.752;2023-05-07T19:54:52;13.30;99.90
22442;DHT22;11388;54.456;9.752;2023-05-07T19:57:17;13.20;99.90
22442;DHT22;11388;54.456;9.752;2023-05-07T19:59:45;13.20;99.90
22442;DHT22;11388;54.456;9.752;2023-05-07T20:02:11;13.20;99.90
22442;DHT22;11388;54.456;9.752;2023-05-07T20:04:36;13.10;99.90
22442;DHT22;11388;54.456;9.752;2023-05-07T20:07:03;13.10;99.90
22442;DHT22;11388;54.456;9.752;2023-05-07T20:09:29;13.00;99.90
22442;DHT22;11388;54.456;9.752;2023-05-07T20:11:54;12.90;99.90
22442;DHT22;11388;54.456;9.752;2023-05-07T20:14:21;12.90;99.90
22442;DHT22;11388;54.456;9.752;2023-05-07T20:16:47;12.90;99.90
22442;DHT22;11388;54.456;9.752;2023-05-07T20:19:12;12.90;99.90
22442;DHT22;11388;54.456;9.752;2023-05-07T20:21:38;12.80;99.90
22442;DHT22;11388;54.456;9.752;2023-05-07T20:24:06;12.80;99.90
22442;DHT22;11388;54.456;9.752;2023-05-07T20:26:32;12.70;99.90
22442;DHT22;11388;54.456;9.752;2023-05-07T20:28:58;12.80;99.90
22442;DHT22;11388;54.456;9.752;2023-05-07T20:31:24;12.80;99.90
22442;DHT22;11388;54.456;9.752;2023-05-07T20:33:49;12.80;99.90
22442;DHT22;11388;54.456;9.752;2023-05-07T20:36:15;12.70;99.90
22442;DHT22;11388;54.456;9.752;2023-05-07T20:38:41;12.70;99.90
22442;DHT22;11388;54.456;9.752;2023-05-07T20:41:10;12.70;99.90
22442;DHT22;11388;54.456;9.752;2023-05-07T20:43:37;12.60;99.90
22442;DHT22;11388;54.456;9.752;2023-05-07T20:46:03;12.60;99.90
22442;DHT22;11388;54.456;9.752;2023-05-07T20:48:29;12.60;99.90
22442;DHT22;11388;54.456;9.752;2023-05-07T20:50:56;12.60;99.90
22442;DHT22;11388;54.456;9.752;2023-05-07T20:53:23;12.50;99.90
22442;DHT22;11388;54.456;9.752;2023-05-07T20:55:49;12.50;99.90
22442;DHT22;11388;54.456;9.752;2023-05-07T20:58:15;12.50;99.90
22442;DHT22;11388;54.456;9.752;2023-05-07T21:00:41;12.40;99.90
22442;DHT22;11388;54.456;9.752;2023-05-07T21:03:06;12.40;99.90
22442;DHT22;11388;54.456;9.752;2023-05-07T21:05:32;12.40;99.90
22442;DHT22;11388;54.456;9.752;2023-05-07T21:07:58;12.40;99.90
22442;DHT22;11388;54.456;9.752;2023-05-07T21:10:23;12.40;99.90
22442;DHT22;11388;54.456;9.752;2023-05-07T21:12:49;12.30;99.90
22442;DHT22;11388;54.456;9.752;2023-05-07T21:15:15;12.30;99.90
22442;DHT22;11388;54.456;9.752;2023-05-07T21:17:40;12.20;99.90
22442;DHT22;11388;54.456;9.752;2023-05-07T21:20:07;12.20;99.90
22442;DHT22;11388;54.456;9.752;2023-05-07T21:22:33;12.20;99.90
22442;DHT22;11388;54.456;9.752;2023-05-07T21:24:59;12.10;99.90
22442;DHT22;11388;54.456;9.752;2023-05-07T21:27:27;12.20;99.90
22442;DHT22;11388;54.456;9.752;2023-05-07T21:29:53;12.10;99.90
22442;DHT22;11388;54.456;9.752;2023-05-07T21:32:19;12.10;99.90
22442;DHT22;11388;54.456;9.752;2023-05-07T21:34:47;12.10;99.90
22442;DHT22;11388;54.456;9.752;2023-05-07T21:37:13;12.10;99.90
22442;DHT22;11388;54.456;9.752;2023-05-07T21:39:40;12.00;99.90
22442;DHT22;11388;54.456;9.752;2023-05-07T21:42:05;12.00;99.90
22442;DHT22;11388;54.456;9.752;2023-05-07T21:44:31;11.90;99.90
22442;DHT22;11388;54.456;9.752;2023-05-07T21:46:56;11.90;99.90
22442;DHT22;11388;54.456;9.752;2023-05-07T21:49:22;12.00;99.90
22442;DHT22;11388;54.456;9.752;2023-05-07T21:51:48;11.90;99.90
22442;DHT22;11388;54.456;9.752;2023-05-07T21:54:13;11.90;99.90
22442;DHT22;11388;54.456;9.752;2023-05-07T21:56:40;11.90;99.90
22442;DHT22;11388;54.456;9.752;2023-05-07T21:59:05;11.90;99.90
22442;DHT22;11388;54.456;9.752;2023-05-07T22:01:31;11.90;99.90
22442;DHT22;11388;54.456;9.752;2023-05-07T22:03:57;11.80;99.90
22442;DHT22;11388;54.456;9.752;2023-05-07T22:06:23;11.90;99.90
22442;DHT22;11388;54.456;9.752;2023-05-07T22:08:49;11.80;99.90
22442;DHT22;11388;54.456;9.752;2023-05-07T22:11:15;11.80;99.90
22442;DHT22;11388;54.456;9.752;2023-05-07T22:13:41;11.80;99.90
22442;DHT22;11388;54.456;9.752;2023-05-07T22:16:07;11.70;99.90
22442;DHT22;11388;54.456;9.752;2023-05-07T22:18:33;11.70;99.90
22442;DHT22;11388;54.456;9.752;2023-05-07T22:20:58;11.70;99.90
22442;DHT22;11388;54.456;9.752;2023-05-07T22:23:24;11.70;99.90
22442;DHT22;11388;54.456;9.752;2023-05-07T22:25:50;11.70;99.90
22442;DHT22;11388;54.456;9.752;2023-05-07T22:28:16;11.70;99.90
22442;DHT22;11388;54.456;9.752;2023-05-07T22:30:41;11.60;99.90
22442;DHT22;11388;54.456;9.752;2023-05-07T22:33:07;11.70;99.90
22442;DHT22;11388;54.456;9.752;2023-05-07T22:35:32;11.60;99.90
22442;DHT22;11388;54.456;9.752;2023-05-07T22:37:58;11.60;99.90
22442;DHT22;11388;54.456;9.752;2023-05-07T22:40:24;11.60;99.90
22442;DHT22;11388;54.456;9.752;2023-05-07T22:42:50;11.60;99.90
22442;DHT22;11388;54.456;9.752;2023-05-07T22:45:15;11.50;99.90
22442;DHT22;11388;54.456;9.752;2023-05-07T22:47:41;11.50;99.90
22442;DHT22;11388;54.456;9.752;2023-05-07T22:50:07;11.50;99.90
22442;DHT22;11388;54.456;9.752;2023-05-07T22:52:33;11.50;99.90
22442;DHT22;11388;54.456;9.752;2023-05-07T22:54:59;11.40;99.90
22442;DHT22;11388;54.456;9.752;2023-05-07T22:57:24;11.40;99.90
22442;DHT22;11388;54.456;9.752;2023-05-07T22:59:56;11.40;99.90
22442;DHT22;11388;54.456;9.752;2023-05-07T23:02:22;11.40;99.90
22442;DHT22;11388;54.456;9.752;2023-05-07T23:04:51;11.30;99.90
22442;DHT22;11388;54.456;9.752;2023-05-07T23:07:17;11.30;99.90
22442;DHT22;11388;54.456;9.752;2023-05-07T23:09:42;11.30;99.90
22442;DHT22;11388;54.456;9.752;2023-05-07T23:12:08;11.30;99.90
22442;DHT22;11388;54.456;9.752;2023-05-07T23:14:34;11.20;99.90
22442;DHT22;11388;54.456;9.752;2023-05-07T23:16:59;11.10;99.90
22442;DHT22;11388;54.456;9.752;2023-05-07T23:19:25;11.10;99.90
22442;DHT22;11388;54.456;9.752;2023-05-07T23:21:50;11.10;99.90
22442;DHT22;11388;54.456;9.752;2023-05-07T23:24:16;11.10;99.90
22442;DHT22;11388;54.456;9.752;2023-05-07T23:26:42;11.00;99.90
22442;DHT22;11388;54.456;9.752;2023-05-07T23:29:07;11.00;99.90
22442;DHT22;11388;54.456;9.752;2023-05-07T23:31:33;11.00;99.90
22442;DHT22;11388;54.456;9.752;2023-05-07T23:33:59;11.00;99.90
22442;DHT22;11388;54.456;9.752;2023-05-07T23:36:24;10.90;99.90
22442;DHT22;11388;54.456;9.752;2023-05-07T23:38:50;10.90;99.90
22442;DHT22;11388;54.456;9.752;2023-05-07T23:41:16;10.90;99.90
22442;DHT22;11388;54.456;9.752;2023-05-07T23:43:44;10.90;99.90
22442;DHT22;11388;54.456;9.752;2023-05-07T23:46:09;10.90;99.90
22442;DHT22;11388;54.456;9.752;2023-05-07T23:48:35;10.90;99.90
22442;DHT22;11388;54.456;9.752;2023-05-07T23:51:01;10.90;99.90
22442;DHT22;11388;54.456;9.752;2023-05-07T23:53:26;10.90;99.90
22442;DHT22;11388;54.456;9.752;2023-05-07T23:55:52;10.90;99.90
22442;DHT22;11388;54.456;9.752;2023-05-07T23:58:18;10.90;99.90
